createdAt,value
2017-10-08T00:00:15.200Z,8.10
2017-10-08T00:02:41.641Z,8.10
2017-10-08T00:05:08.211Z,8.10
2017-10-08T00:07:35.485Z,8.20
2017-10-08T00:10:01.913Z,8.20
2017-10-08T00:12:28.505Z,8.20
2017-10-08T00:14:54.967Z,8.20
2017-10-08T00:17:21.405Z,8.20
2017-10-08T00:19:48.608Z,8.20
2017-10-08T00:22:15.143Z,8.20
2017-10-08T00:24:41.577Z,8.30
2017-10-08T00:27:08.157Z,8.30
2017-10-08T00:29:35.432Z,8.30
2017-10-08T00:32:02.711Z,8.30
2017-10-08T00:34:29.155Z,8.30
2017-10-08T00:36:56.326Z,8.40
2017-10-08T00:39:23.509Z,8.40
2017-10-08T00:41:50.564Z,8.30
2017-10-08T00:44:17.794Z,8.30
2017-10-08T00:46:44.922Z,8.30
2017-10-08T00:49:11.354Z,8.40
2017-10-08T00:51:37.814Z,8.40
2017-10-08T00:54:05.029Z,8.40
2017-10-08T00:56:31.559Z,8.40
2017-10-08T00:58:58.834Z,8.40
2017-10-08T01:01:26.038Z,8.40
2017-10-08T01:03:52.542Z,8.40
2017-10-08T01:06:19.002Z,8.50
2017-10-08T01:08:46.248Z,8.40
2017-10-08T01:11:12.780Z,8.40
2017-10-08T01:13:39.280Z,8.40
2017-10-08T01:16:05.773Z,8.40
2017-10-08T01:18:33.761Z,8.40
2017-10-08T01:21:00.295Z,8.40
2017-10-08T01:23:26.979Z,8.40
2017-10-08T01:25:54.315Z,8.40
2017-10-08T01:28:20.843Z,8.40
2017-10-08T01:30:47.874Z,8.40
2017-10-08T01:33:15.109Z,8.40
2017-10-08T01:35:41.817Z,8.40
2017-10-08T01:38:09.085Z,8.40
2017-10-08T01:40:36.365Z,8.40
2017-10-08T01:43:03.740Z,8.40
2017-10-08T01:45:31.016Z,8.40
2017-10-08T01:47:58.256Z,8.40
2017-10-08T01:50:24.850Z,8.40
2017-10-08T01:52:51.291Z,8.40
2017-10-08T01:55:18.550Z,8.40
2017-10-08T01:57:45.140Z,8.40
2017-10-08T02:00:11.696Z,8.40
2017-10-08T02:02:38.256Z,8.40
2017-10-08T02:05:04.811Z,8.40
2017-10-08T02:07:32.087Z,8.40
2017-10-08T02:09:58.524Z,8.40
2017-10-08T02:12:24.985Z,8.40
2017-10-08T02:14:52.213Z,8.40
2017-10-08T02:17:18.673Z,8.40
2017-10-08T02:19:45.187Z,8.50
2017-10-08T02:22:11.651Z,8.50
2017-10-08T02:24:38.168Z,8.50
2017-10-08T02:27:04.622Z,8.50
2017-10-08T02:29:31.059Z,8.50
2017-10-08T02:31:57.593Z,8.50
2017-10-08T02:34:24.127Z,8.50
2017-10-08T02:36:51.116Z,8.50
2017-10-08T02:39:17.678Z,8.60
2017-10-08T02:41:44.126Z,8.60
2017-10-08T02:44:10.550Z,8.60
2017-10-08T02:46:37.750Z,8.70
2017-10-08T02:49:04.248Z,8.60
2017-10-08T02:51:30.753Z,8.70
2017-10-08T02:53:57.215Z,8.70
2017-10-08T02:56:23.767Z,8.70
2017-10-08T02:58:50.951Z,8.60
2017-10-08T03:01:17.396Z,8.60
2017-10-08T03:03:44.572Z,8.60
2017-10-08T03:06:11.023Z,8.60
2017-10-08T03:08:38.189Z,8.60
2017-10-08T03:11:05.468Z,8.70
2017-10-08T03:13:32.695Z,8.70
2017-10-08T03:15:59.131Z,8.60
2017-10-08T03:18:25.565Z,8.70
2017-10-08T03:20:51.997Z,8.60
2017-10-08T03:23:19.196Z,8.60
2017-10-08T03:25:45.637Z,8.60
2017-10-08T03:28:12.817Z,8.70
2017-10-08T03:30:39.369Z,8.60
2017-10-08T03:33:05.928Z,8.70
2017-10-08T03:35:33.092Z,8.70
2017-10-08T03:38:00.304Z,8.70
2017-10-08T03:40:26.833Z,8.70
2017-10-08T03:42:53.314Z,8.70
2017-10-08T03:45:19.827Z,8.70
2017-10-08T03:47:47.026Z,8.70
2017-10-08T03:50:13.472Z,8.70
2017-10-08T03:52:40.742Z,8.70
2017-10-08T03:55:08.026Z,8.70
2017-10-08T03:57:34.579Z,8.70
2017-10-08T04:00:01.726Z,8.70
2017-10-08T04:02:28.207Z,8.70
2017-10-08T04:04:55.401Z,8.80
2017-10-08T04:07:21.834Z,8.80
2017-10-08T04:09:49.069Z,8.80
2017-10-08T04:12:16.187Z,8.80
2017-10-08T04:14:42.738Z,8.90
2017-10-08T04:17:10.018Z,8.90
2017-10-08T04:19:36.559Z,8.90
2017-10-08T04:22:03.845Z,8.90
2017-10-08T04:24:31.023Z,8.90
2017-10-08T04:26:57.577Z,8.90
2017-10-08T04:29:24.746Z,8.90
2017-10-08T04:31:52.027Z,8.90
2017-10-08T04:34:18.486Z,8.90
2017-10-08T04:36:44.950Z,8.90
2017-10-08T04:39:11.494Z,8.90
2017-10-08T04:41:37.970Z,8.90
2017-10-08T04:44:04.508Z,8.90
2017-10-08T04:46:31.783Z,8.90
2017-10-08T04:48:58.342Z,9.00
2017-10-08T04:51:25.512Z,9.00
2017-10-08T04:53:52.708Z,8.90
2017-10-08T04:56:19.178Z,8.90
2017-10-08T04:58:45.700Z,8.90
2017-10-08T05:01:12.271Z,8.90
2017-10-08T05:03:38.823Z,8.90
2017-10-08T05:06:05.483Z,9.00
2017-10-08T05:08:32.036Z,8.90
2017-10-08T05:10:58.508Z,8.90
2017-10-08T05:13:25.050Z,8.90
2017-10-08T05:15:51.609Z,8.90
2017-10-08T05:18:18.149Z,8.90
2017-10-08T05:20:44.633Z,8.90
2017-10-08T05:23:11.061Z,8.90
2017-10-08T05:25:37.502Z,8.90
2017-10-08T05:28:03.958Z,8.90
2017-10-08T05:30:30.448Z,9.00
2017-10-08T05:32:58.770Z,9.00
2017-10-08T05:35:25.308Z,9.00
2017-10-08T05:37:51.864Z,9.00
2017-10-08T05:40:18.419Z,9.00
2017-10-08T05:42:44.978Z,9.10
2017-10-08T05:45:12.162Z,9.10
2017-10-08T05:47:38.709Z,9.10
2017-10-08T05:50:05.988Z,9.10
2017-10-08T05:52:32.541Z,9.10
2017-10-08T05:54:59.015Z,9.10
2017-10-08T05:57:25.500Z,9.10
2017-10-08T05:59:52.116Z,9.10
2017-10-08T06:02:18.673Z,9.10
2017-10-08T06:04:45.195Z,9.20
2017-10-08T06:07:11.791Z,9.20
2017-10-08T06:09:38.245Z,9.20
2017-10-08T06:12:05.623Z,9.20
2017-10-08T06:14:32.083Z,9.20
2017-10-08T06:16:58.637Z,9.30
2017-10-08T06:19:25.823Z,9.30
2017-10-08T06:21:52.345Z,9.30
2017-10-08T06:24:18.924Z,9.30
2017-10-08T06:26:46.102Z,9.30
2017-10-08T06:29:12.626Z,9.30
2017-10-08T06:31:39.214Z,9.30
2017-10-08T06:34:06.488Z,9.30
2017-10-08T06:36:33.672Z,9.30
2017-10-08T06:39:00.092Z,9.30
2017-10-08T06:41:26.981Z,9.30
2017-10-08T06:43:54.463Z,9.30
2017-10-08T06:46:20.981Z,9.30
2017-10-08T06:48:48.294Z,9.40
2017-10-08T06:51:14.853Z,9.40
2017-10-08T06:53:42.073Z,9.40
2017-10-08T06:56:08.688Z,9.40
2017-10-08T06:58:35.247Z,9.40
2017-10-08T07:01:01.806Z,9.40
2017-10-08T07:03:28.321Z,9.50
2017-10-08T07:05:54.789Z,9.50
2017-10-08T07:08:22.054Z,9.50
2017-10-08T07:10:48.650Z,9.50
2017-10-08T07:13:15.312Z,9.50
2017-10-08T07:15:41.971Z,9.50
2017-10-08T07:18:08.443Z,9.50
2017-10-08T07:20:35.002Z,9.50
2017-10-08T07:23:01.648Z,9.50
2017-10-08T07:25:28.215Z,9.50
2017-10-08T07:27:54.699Z,9.60
2017-10-08T07:30:21.329Z,9.60
2017-10-08T07:32:47.841Z,9.70
2017-10-08T07:35:14.337Z,9.70
2017-10-08T07:37:41.564Z,9.70
2017-10-08T07:40:08.715Z,9.70
2017-10-08T07:42:35.237Z,9.70
2017-10-08T07:45:02.617Z,9.80
2017-10-08T07:47:29.275Z,9.70
2017-10-08T07:49:55.733Z,9.80
2017-10-08T07:52:22.903Z,9.80
2017-10-08T07:54:49.420Z,9.90
2017-10-08T07:57:16.021Z,9.90
2017-10-08T07:59:42.529Z,9.90
2017-10-08T08:02:09.037Z,9.90
2017-10-08T08:04:35.520Z,10.00
2017-10-08T08:07:02.543Z,10.00
2017-10-08T08:09:29.095Z,10.00
2017-10-08T08:11:55.780Z,10.00
2017-10-08T08:14:22.246Z,10.00
2017-10-08T08:16:48.718Z,10.00
2017-10-08T08:19:15.251Z,10.00
2017-10-08T08:21:42.528Z,10.00
2017-10-08T08:24:09.084Z,10.00
2017-10-08T08:26:36.358Z,10.10
2017-10-08T08:29:03.634Z,10.20
2017-10-08T08:31:31.009Z,10.20
2017-10-08T08:33:57.570Z,10.20
2017-10-08T08:36:24.128Z,10.20
2017-10-08T08:38:50.684Z,10.20
2017-10-08T08:41:18.062Z,10.20
2017-10-08T08:43:44.726Z,10.20
2017-10-08T08:46:11.186Z,10.20
2017-10-08T08:48:37.737Z,10.20
2017-10-08T08:51:04.296Z,10.20
2017-10-08T08:53:31.520Z,10.30
2017-10-08T08:55:58.025Z,10.20
2017-10-08T08:58:24.552Z,10.30
2017-10-08T09:00:51.001Z,10.20
2017-10-08T09:03:19.047Z,10.20
2017-10-08T09:05:45.692Z,10.20
2017-10-08T09:08:12.966Z,10.20
2017-10-08T09:10:39.522Z,10.20
2017-10-08T09:13:10.859Z,10.20
2017-10-08T09:15:37.336Z,10.20
2017-10-08T09:18:03.902Z,10.20
2017-10-08T09:20:30.380Z,10.30
2017-10-08T09:22:56.845Z,10.30
2017-10-08T09:25:23.264Z,10.40
2017-10-08T09:27:51.055Z,10.40
2017-10-08T09:30:18.337Z,10.40
2017-10-08T09:32:44.815Z,10.40
2017-10-08T09:35:11.323Z,10.50
2017-10-08T09:37:38.499Z,10.40
2017-10-08T09:40:05.177Z,10.40
2017-10-08T09:42:32.453Z,10.50
2017-10-08T09:44:59.621Z,10.60
2017-10-08T09:47:26.823Z,10.60
2017-10-08T09:49:53.357Z,10.60
2017-10-08T09:52:19.791Z,10.70
2017-10-08T09:54:47.086Z,10.60
2017-10-08T09:57:13.545Z,10.60
2017-10-08T09:59:40.005Z,10.60
2017-10-08T10:02:06.969Z,10.60
2017-10-08T10:04:34.142Z,10.70
2017-10-08T10:07:00.701Z,10.70
2017-10-08T10:09:27.168Z,10.70
2017-10-08T10:11:53.713Z,10.70
2017-10-08T10:14:20.268Z,10.80
2017-10-08T10:16:47.544Z,10.90
2017-10-08T10:19:14.658Z,10.80
2017-10-08T10:21:41.890Z,10.90
2017-10-08T10:24:08.545Z,11.00
2017-10-08T10:26:35.106Z,11.10
2017-10-08T10:29:02.382Z,11.20
2017-10-08T10:31:29.656Z,11.20
2017-10-08T10:33:56.933Z,11.20
2017-10-08T10:36:23.402Z,11.20
2017-10-08T10:38:49.892Z,11.30
2017-10-08T10:41:16.726Z,11.30
2017-10-08T10:43:43.231Z,11.40
2017-10-08T10:46:10.468Z,11.50
2017-10-08T10:48:36.947Z,11.50
2017-10-08T10:51:03.497Z,11.50
2017-10-08T10:53:30.011Z,11.50
2017-10-08T10:55:56.475Z,11.50
2017-10-08T10:58:23.028Z,11.50
2017-10-08T11:00:49.589Z,11.50
2017-10-08T11:03:16.145Z,11.50
2017-10-08T11:05:42.700Z,11.50
2017-10-08T11:08:09.918Z,11.40
2017-10-08T11:10:36.504Z,11.30
2017-10-08T11:13:03.095Z,11.40
2017-10-08T11:15:29.653Z,11.60
2017-10-08T11:17:56.134Z,11.70
2017-10-08T11:20:22.664Z,11.70
2017-10-08T11:22:49.226Z,11.80
2017-10-08T11:25:15.784Z,11.90
2017-10-08T11:27:42.340Z,12.00
2017-10-08T11:30:08.858Z,12.00
2017-10-08T11:32:35.955Z,12.00
2017-10-08T11:35:03.243Z,12.00
2017-10-08T11:37:30.445Z,11.90
2017-10-08T11:39:56.967Z,11.90
2017-10-08T11:42:24.655Z,11.80
2017-10-08T11:44:51.127Z,11.80
2017-10-08T11:47:17.545Z,11.80
2017-10-08T11:49:44.025Z,11.80
2017-10-08T11:52:12.017Z,11.60
2017-10-08T11:54:39.800Z,11.50
2017-10-08T11:57:06.365Z,11.50
2017-10-08T11:59:33.039Z,11.50
2017-10-08T12:01:59.578Z,11.50
2017-10-08T12:04:26.138Z,11.50
2017-10-08T12:06:53.206Z,11.50
2017-10-08T12:09:19.764Z,11.40
2017-10-08T12:11:47.142Z,11.30
2017-10-08T12:14:13.611Z,11.20
2017-10-08T12:16:40.258Z,11.10
2017-10-08T12:19:06.923Z,11.10
2017-10-08T12:21:33.478Z,11.00
2017-10-08T12:24:00.856Z,10.90
2017-10-08T12:26:27.473Z,10.90
2017-10-08T12:28:55.608Z,10.90
2017-10-08T12:31:22.271Z,10.90
2017-10-08T12:33:53.123Z,10.90
2017-10-08T12:36:19.583Z,10.90
2017-10-08T12:38:46.548Z,10.90
2017-10-08T12:41:13.211Z,10.90
2017-10-08T12:43:39.767Z,10.80
2017-10-08T12:46:06.426Z,10.80
2017-10-08T12:48:32.986Z,10.80
2017-10-08T12:50:59.646Z,10.70
2017-10-08T12:53:26.414Z,10.70
2017-10-08T12:55:53.074Z,10.70
2017-10-08T12:58:19.531Z,10.60
2017-10-08T13:00:47.005Z,10.60
2017-10-08T13:03:13.560Z,10.50
2017-10-08T13:05:40.836Z,10.50
2017-10-08T13:08:08.315Z,10.50
2017-10-08T13:10:35.497Z,10.50
2017-10-08T13:13:02.047Z,10.50
2017-10-08T13:15:28.608Z,10.50
2017-10-08T13:17:55.163Z,10.50
2017-10-08T13:20:22.438Z,10.60
2017-10-08T13:22:48.924Z,10.50
2017-10-08T13:25:15.861Z,10.60
2017-10-08T13:27:42.421Z,10.70
2017-10-08T13:30:09.525Z,10.70
2017-10-08T13:32:36.251Z,10.70
2017-10-08T13:35:03.631Z,10.80
2017-10-08T13:37:30.115Z,10.80
2017-10-08T13:39:56.847Z,10.70
2017-10-08T13:42:23.611Z,10.70
2017-10-08T13:44:50.274Z,10.70
2017-10-08T13:47:18.091Z,10.70
2017-10-08T13:49:45.843Z,10.60
2017-10-08T13:52:12.503Z,10.50
2017-10-08T13:54:39.061Z,10.50
2017-10-08T13:57:06.278Z,10.30
2017-10-08T13:59:32.792Z,10.20
2017-10-08T14:01:59.350Z,10.20
2017-10-08T14:04:26.544Z,10.10
2017-10-08T14:06:53.080Z,10.10
2017-10-08T14:09:19.740Z,10.20
2017-10-08T14:11:47.015Z,10.30
2017-10-08T14:14:14.393Z,10.30
2017-10-08T14:16:40.953Z,10.20
2017-10-08T14:19:07.612Z,10.30
2017-10-08T14:21:34.274Z,10.30
2017-10-08T14:24:00.757Z,10.30
2017-10-08T14:26:27.288Z,10.30
2017-10-08T14:28:54.663Z,10.30
2017-10-08T14:31:21.529Z,10.30
2017-10-08T14:33:50.133Z,10.40
2017-10-08T14:36:16.611Z,10.40
2017-10-08T14:38:43.147Z,10.40
2017-10-08T14:41:10.525Z,10.50
2017-10-08T14:43:37.013Z,10.50
2017-10-08T14:46:03.844Z,10.50
2017-10-08T14:48:31.118Z,10.60
2017-10-08T14:50:59.109Z,10.60
2017-10-08T14:53:26.077Z,10.60
2017-10-08T14:55:53.352Z,10.60
2017-10-08T14:58:20.318Z,10.60
2017-10-08T15:00:46.878Z,10.50
2017-10-08T15:03:13.436Z,10.50
2017-10-08T15:05:39.924Z,10.50
2017-10-08T15:08:06.552Z,10.50
2017-10-08T15:10:33.929Z,10.50
2017-10-08T15:13:00.473Z,10.50
2017-10-08T15:15:27.966Z,10.40
2017-10-08T15:17:55.367Z,10.40
2017-10-08T15:20:21.906Z,10.40
2017-10-08T15:22:48.385Z,10.30
2017-10-08T15:25:18.547Z,10.30
2017-10-08T15:27:44.999Z,10.30
2017-10-08T15:30:11.615Z,10.30
2017-10-08T15:32:39.911Z,10.30
2017-10-08T15:35:06.422Z,10.30
2017-10-08T15:37:32.925Z,10.30
2017-10-08T15:39:59.447Z,10.30
2017-10-08T15:42:26.599Z,10.30
2017-10-08T15:44:53.212Z,10.30
2017-10-08T15:47:20.496Z,10.20
2017-10-08T15:49:47.252Z,10.20
2017-10-08T15:52:13.912Z,10.20
2017-10-08T15:54:40.510Z,10.20
2017-10-08T15:57:06.976Z,10.10
2017-10-08T15:59:33.484Z,10.10
2017-10-08T16:02:00.042Z,10.10
2017-10-08T16:04:27.258Z,10.00
2017-10-08T16:06:54.231Z,10.00
2017-10-08T16:09:21.769Z,9.90
2017-10-08T16:11:48.322Z,9.90
2017-10-08T16:14:14.880Z,9.90
2017-10-08T16:16:41.443Z,9.80
2017-10-08T16:19:08.201Z,9.70
2017-10-08T16:21:35.555Z,9.60
2017-10-08T16:24:02.041Z,9.60
2017-10-08T16:26:28.527Z,9.70
2017-10-08T16:28:55.157Z,9.60
2017-10-08T16:31:21.711Z,9.60
2017-10-08T16:33:48.165Z,9.60
2017-10-08T16:36:14.723Z,9.50
2017-10-08T16:38:42.001Z,9.20
2017-10-08T16:41:08.659Z,9.20
2017-10-08T16:43:36.667Z,9.20
2017-10-08T16:46:03.225Z,9.20
2017-10-08T16:48:29.766Z,9.20
2017-10-08T16:50:56.327Z,9.20
2017-10-08T16:53:22.882Z,9.20
2017-10-08T16:55:49.344Z,9.20
2017-10-08T16:58:15.897Z,9.30
2017-10-08T17:00:42.457Z,9.30
2017-10-08T17:03:08.954Z,9.40
2017-10-08T17:05:35.441Z,9.40
2017-10-08T17:08:01.942Z,9.40
2017-10-08T17:10:28.488Z,9.40
2017-10-08T17:12:55.352Z,9.50
2017-10-08T17:15:22.737Z,9.50
2017-10-08T17:17:49.285Z,9.50
2017-10-08T17:20:16.663Z,9.60
2017-10-08T17:22:43.851Z,9.60
2017-10-08T17:25:11.314Z,9.60
2017-10-08T17:27:38.347Z,9.50
2017-10-08T17:30:04.940Z,9.50
2017-10-08T17:32:31.956Z,9.50
2017-10-08T17:34:58.466Z,9.50
2017-10-08T17:37:26.256Z,9.40
2017-10-08T17:39:52.722Z,9.40
2017-10-08T17:42:19.220Z,9.40
2017-10-08T17:44:45.727Z,9.30
2017-10-08T17:47:12.284Z,9.30
2017-10-08T17:49:38.840Z,9.30
2017-10-08T17:52:05.332Z,9.20
2017-10-08T17:54:31.930Z,9.20
2017-10-08T17:56:58.404Z,9.10
2017-10-08T17:59:29.366Z,9.10
2017-10-08T18:01:56.646Z,9.10
2017-10-08T18:04:23.308Z,9.10
2017-10-08T18:06:50.784Z,9.10
2017-10-08T18:09:18.264Z,9.10
2017-10-08T18:11:44.825Z,9.10
2017-10-08T18:14:11.482Z,9.00
2017-10-08T18:16:38.019Z,9.00
2017-10-08T18:19:04.905Z,8.90
2017-10-08T18:21:31.569Z,8.90
2017-10-08T18:23:58.229Z,8.80
2017-10-08T18:26:24.991Z,8.80
2017-10-08T18:28:51.438Z,8.70
2017-10-08T18:31:18.721Z,8.70
2017-10-08T18:33:45.235Z,8.70
2017-10-08T18:36:13.472Z,8.60
2017-10-08T18:38:40.132Z,8.60
2017-10-08T18:41:07.096Z,8.50
2017-10-08T18:43:34.447Z,8.40
2017-10-08T18:46:01.141Z,8.40
2017-10-08T18:48:27.805Z,8.30
2017-10-08T18:50:54.360Z,8.20
2017-10-08T18:53:20.917Z,8.10
2017-10-08T18:55:47.682Z,8.10
2017-10-08T18:58:14.916Z,7.90
2017-10-08T19:00:41.465Z,7.90
2017-10-08T19:03:07.955Z,7.90
2017-10-08T19:05:35.251Z,7.70
2017-10-08T19:08:01.806Z,7.70
2017-10-08T19:10:28.845Z,7.70
2017-10-08T19:12:55.531Z,7.60
2017-10-08T19:15:22.015Z,7.60
2017-10-08T19:17:48.529Z,7.50
2017-10-08T19:20:15.931Z,7.40
2017-10-08T19:22:42.659Z,7.40
2017-10-08T19:25:09.248Z,7.30
2017-10-08T19:27:35.877Z,7.30
2017-10-08T19:30:02.577Z,7.30
2017-10-08T19:32:29.125Z,7.20
2017-10-08T19:34:56.351Z,7.10
2017-10-08T19:37:22.958Z,7.10
2017-10-08T19:39:49.514Z,7.10
2017-10-08T19:42:16.777Z,7.00
2017-10-08T19:44:44.377Z,7.00
2017-10-08T19:47:10.900Z,7.00
2017-10-08T19:49:37.590Z,7.10
2017-10-08T19:52:04.148Z,7.10
2017-10-08T19:54:31.429Z,7.20
2017-10-08T19:56:57.893Z,7.20
2017-10-08T19:59:24.438Z,7.20
2017-10-08T20:01:50.999Z,7.30
2017-10-08T20:04:17.555Z,7.30
2017-10-08T20:06:44.827Z,7.30
2017-10-08T20:09:12.161Z,7.40
2017-10-08T20:11:38.763Z,7.30
2017-10-08T20:14:05.941Z,7.30
2017-10-08T20:16:32.433Z,7.30
2017-10-08T20:18:58.949Z,7.30
2017-10-08T20:21:26.223Z,7.30
2017-10-08T20:23:53.601Z,7.30
2017-10-08T20:26:20.875Z,7.30
2017-10-08T20:28:48.056Z,7.20
2017-10-08T20:31:14.525Z,7.20
2017-10-08T20:33:41.060Z,7.10
2017-10-08T20:36:08.340Z,7.10
2017-10-08T20:38:34.895Z,7.10
2017-10-08T20:41:02.094Z,7.10
2017-10-08T20:43:28.624Z,7.10
2017-10-08T20:45:55.900Z,7.20
2017-10-08T20:48:23.480Z,7.20
2017-10-08T20:50:50.012Z,7.20
2017-10-08T20:53:16.484Z,7.30
2017-10-08T20:55:43.674Z,7.30
2017-10-08T20:58:10.132Z,7.30
2017-10-08T21:00:36.682Z,7.20
2017-10-08T21:03:03.136Z,7.20
2017-10-08T21:05:29.698Z,7.20
2017-10-08T21:07:56.253Z,7.20
2017-10-08T21:10:22.723Z,7.20
2017-10-08T21:12:49.212Z,7.20
2017-10-08T21:15:15.676Z,7.10
2017-10-08T21:17:42.181Z,7.20
2017-10-08T21:20:08.744Z,7.20
2017-10-08T21:22:35.177Z,7.20
2017-10-08T21:25:01.651Z,7.20
2017-10-08T21:27:28.854Z,7.20
2017-10-08T21:29:55.382Z,7.20
2017-10-08T21:32:22.660Z,7.30
2017-10-08T21:34:49.114Z,7.20
2017-10-08T21:37:18.815Z,7.30
2017-10-08T21:39:45.302Z,7.30
2017-10-08T21:42:11.856Z,7.30
2017-10-08T21:44:39.130Z,7.30
2017-10-08T21:47:05.688Z,7.30
2017-10-08T21:49:32.250Z,7.30
2017-10-08T21:51:58.785Z,7.30
2017-10-08T21:54:25.261Z,7.40
2017-10-08T21:56:52.529Z,7.40
2017-10-08T21:59:19.811Z,7.40
2017-10-08T22:01:47.085Z,7.40
2017-10-08T22:04:14.359Z,7.40
2017-10-08T22:06:41.633Z,7.40
2017-10-08T22:09:08.191Z,7.40
2017-10-08T22:11:35.473Z,7.40
2017-10-08T22:14:01.939Z,7.40
2017-10-08T22:16:28.381Z,7.40
2017-10-08T22:18:54.844Z,7.40
2017-10-08T22:21:21.293Z,7.40
2017-10-08T22:23:47.851Z,7.50
2017-10-08T22:26:14.326Z,7.50
2017-10-08T22:28:41.351Z,7.50
2017-10-08T22:31:07.934Z,7.50
2017-10-08T22:33:34.492Z,7.40
2017-10-08T22:36:01.723Z,7.30
2017-10-08T22:38:28.178Z,7.30
2017-10-08T22:40:54.680Z,7.30
2017-10-08T22:43:21.239Z,7.30
2017-10-08T22:45:48.466Z,7.20
2017-10-08T22:48:14.970Z,7.30
2017-10-08T22:50:41.526Z,7.30
2017-10-08T22:53:08.808Z,7.40
2017-10-08T22:55:35.363Z,7.30
2017-10-08T22:58:01.918Z,7.40
2017-10-08T23:00:28.475Z,7.40
2017-10-08T23:02:54.913Z,7.50
2017-10-08T23:05:22.111Z,7.50
2017-10-08T23:07:48.663Z,7.50
2017-10-08T23:10:15.222Z,7.50
2017-10-08T23:12:41.653Z,7.50
2017-10-08T23:15:08.127Z,7.50
2017-10-08T23:17:35.857Z,7.60
2017-10-08T23:20:02.341Z,7.60
2017-10-08T23:22:28.932Z,7.60
2017-10-08T23:24:55.494Z,7.70
2017-10-08T23:27:22.050Z,7.70
2017-10-08T23:29:49.326Z,7.70
2017-10-08T23:32:16.598Z,7.60
2017-10-08T23:34:43.874Z,7.60
2017-10-08T23:37:10.536Z,7.60
2017-10-08T23:39:36.984Z,7.60
2017-10-08T23:42:04.265Z,7.60
2017-10-08T23:44:30.823Z,7.60
2017-10-08T23:46:57.278Z,7.60
2017-10-08T23:49:23.946Z,7.70
2017-10-08T23:51:50.601Z,7.70
2017-10-08T23:54:17.875Z,7.80
2017-10-08T23:56:44.432Z,7.80
2017-10-08T23:59:11.707Z,7.90
